sensor_id;sensor_type;location;lat;lon;timestamp;pressure;altitude;pressure_sealevel;temperature;humidity
50774;BME280;36745;48.544;8.918;2023-03-19T00:01:42;97048.59;;;8.80;68.50
50774;BME280;36745;48.544;8.918;2023-03-19T00:05:03;97049.72;;;8.82;67.96
50774;BME280;36745;48.544;8.918;2023-03-19T00:08:23;97047.50;;;8.77;68.43
50774;BME280;36745;48.544;8.918;2023-03-19T00:11:43;97058.84;;;8.79;68.93
50774;BME280;36745;48.544;8.918;2023-03-19T00:15:03;97061.25;;;8.77;69.17
50774;BME280;36745;48.544;8.918;2023-03-19T00:18:23;97071.28;;;8.84;68.56
50774;BME280;36745;48.544;8.918;2023-03-19T00:21:42;97066.88;;;8.87;68.57
50774;BME280;36745;48.544;8.918;2023-03-19T00:25:02;97075.47;;;8.89;68.64
50774;BME280;36745;48.544;8.918;2023-03-19T00:28:22;97078.66;;;8.87;68.80
50774;BME280;36745;48.544;8.918;2023-03-19T00:31:42;97079.44;;;8.88;68.54
50774;BME280;36745;48.544;8.918;2023-03-19T00:35:02;97075.13;;;8.87;69.40
50774;BME280;36745;48.544;8.918;2023-03-19T00:38:24;97088.69;;;8.94;69.27
50774;BME280;36745;48.544;8.918;2023-03-19T00:41:44;97092.63;;;8.93;69.24
50774;BME280;36745;48.544;8.918;2023-03-19T00:45:09;97110.69;;;8.94;68.26
50774;BME280;36745;48.544;8.918;2023-03-19T00:48:29;97111.34;;;8.98;67.90
50774;BME280;36745;48.544;8.918;2023-03-19T00:51:49;97108.06;;;9.03;67.34
50774;BME280;36745;48.544;8.918;2023-03-19T00:55:09;97116.19;;;8.94;69.19
50774;BME280;36745;48.544;8.918;2023-03-19T00:58:29;97139.63;;;8.98;70.13
50774;BME280;36745;48.544;8.918;2023-03-19T01:01:49;97140.34;;;9.15;68.10
50774;BME280;36745;48.544;8.918;2023-03-19T01:05:09;97147.03;;;9.14;68.07
50774;BME280;36745;48.544;8.918;2023-03-19T01:08:29;97137.09;;;9.04;68.13
50774;BME280;36745;48.544;8.918;2023-03-19T01:11:48;97141.94;;;9.00;69.29
50774;BME280;36745;48.544;8.918;2023-03-19T01:15:09;97147.31;;;9.32;67.99
50774;BME280;36745;48.544;8.918;2023-03-19T01:18:29;97143.84;;;9.44;68.12
50774;BME280;36745;48.544;8.918;2023-03-19T01:21:49;97151.09;;;9.38;69.61
50774;BME280;36745;48.544;8.918;2023-03-19T01:25:11;97149.13;;;9.51;68.73
50774;BME280;36745;48.544;8.918;2023-03-19T01:28:31;97148.56;;;9.44;70.82
50774;BME280;36745;48.544;8.918;2023-03-19T01:31:51;97134.72;;;9.60;69.35
50774;BME280;36745;48.544;8.918;2023-03-19T01:35:11;97136.25;;;9.48;72.82
50774;BME280;36745;48.544;8.918;2023-03-19T01:38:31;97122.69;;;9.41;74.74
50774;BME280;36745;48.544;8.918;2023-03-19T01:41:51;97114.97;;;9.36;76.47
50774;BME280;36745;48.544;8.918;2023-03-19T01:45:46;97130.03;;;9.32;77.09
50774;BME280;36745;48.544;8.918;2023-03-19T01:49:10;97108.94;;;9.41;73.75
50774;BME280;36745;48.544;8.918;2023-03-19T01:52:32;97111.88;;;9.34;75.65
50774;BME280;36745;48.544;8.918;2023-03-19T01:55:56;97107.94;;;9.35;75.26
50774;BME280;36745;48.544;8.918;2023-03-19T01:59:25;97127.72;;;9.30;76.17
50774;BME280;36745;48.544;8.918;2023-03-19T02:02:47;97134.00;;;9.31;77.50
50774;BME280;36745;48.544;8.918;2023-03-19T02:06:09;97127.25;;;9.19;78.25
50774;BME280;36745;48.544;8.918;2023-03-19T02:09:30;97122.09;;;9.21;78.23
50774;BME280;36745;48.544;8.918;2023-03-19T02:12:50;97126.59;;;9.15;77.74
50774;BME280;36745;48.544;8.918;2023-03-19T02:16:10;97114.91;;;9.11;78.55
50774;BME280;36745;48.544;8.918;2023-03-19T02:19:37;97123.25;;;9.07;78.79
50774;BME280;36745;48.544;8.918;2023-03-19T02:23:08;97125.00;;;9.01;78.15
50774;BME280;36745;48.544;8.918;2023-03-19T02:26:32;97135.06;;;8.92;78.98
50774;BME280;36745;48.544;8.918;2023-03-19T02:29:53;97132.78;;;8.90;79.71
50774;BME280;36745;48.544;8.918;2023-03-19T02:33:16;97139.66;;;8.82;80.34
50774;BME280;36745;48.544;8.918;2023-03-19T02:36:42;97150.22;;;8.83;81.39
50774;BME280;36745;48.544;8.918;2023-03-19T02:40:06;97146.28;;;8.84;81.15
50774;BME280;36745;48.544;8.918;2023-03-19T02:43:27;97151.06;;;8.80;82.01
50774;BME280;36745;48.544;8.918;2023-03-19T02:46:48;97144.38;;;8.81;81.54
50774;BME280;36745;48.544;8.918;2023-03-19T02:50:08;97143.94;;;8.83;82.46
50774;BME280;36745;48.544;8.918;2023-03-19T02:53:28;97143.34;;;8.75;83.15
50774;BME280;36745;48.544;8.918;2023-03-19T02:56:48;97136.50;;;8.67;83.17
50774;BME280;36745;48.544;8.918;2023-03-19T03:00:09;97140.34;;;8.70;83.76
50774;BME280;36745;48.544;8.918;2023-03-19T03:03:29;97143.88;;;8.70;83.79
50774;BME280;36745;48.544;8.918;2023-03-19T03:06:49;97154.44;;;8.72;83.51
50774;BME280;36745;48.544;8.918;2023-03-19T03:10:09;97150.56;;;8.69;84.14
50774;BME280;36745;48.544;8.918;2023-03-19T03:13:29;97159.00;;;8.78;83.55
50774;BME280;36745;48.544;8.918;2023-03-19T03:16:49;97152.63;;;8.81;83.63
50774;BME280;36745;48.544;8.918;2023-03-19T03:20:11;97156.91;;;8.82;83.93
50774;BME280;36745;48.544;8.918;2023-03-19T03:23:31;97153.56;;;8.75;83.97
50774;BME280;36745;48.544;8.918;2023-03-19T03:26:51;97159.84;;;8.75;84.46
50774;BME280;36745;48.544;8.918;2023-03-19T03:30:11;97154.03;;;8.73;84.36
50774;BME280;36745;48.544;8.918;2023-03-19T03:33:31;97156.94;;;8.66;84.92
50774;BME280;36745;48.544;8.918;2023-03-19T03:36:51;97158.56;;;8.64;85.11
50774;BME280;36745;48.544;8.918;2023-03-19T03:40:11;97156.59;;;8.64;85.92
50774;BME280;36745;48.544;8.918;2023-03-19T03:43:32;97148.34;;;8.64;85.43
50774;BME280;36745;48.544;8.918;2023-03-19T03:46:52;97152.41;;;8.60;85.43
50774;BME280;36745;48.544;8.918;2023-03-19T03:50:12;97157.31;;;8.52;85.54
50774;BME280;36745;48.544;8.918;2023-03-19T03:53:32;97167.06;;;8.53;86.48
50774;BME280;36745;48.544;8.918;2023-03-19T03:56:52;97158.84;;;8.53;87.00
50774;BME280;36745;48.544;8.918;2023-03-19T04:00:12;97173.69;;;8.56;86.80
50774;BME280;36745;48.544;8.918;2023-03-19T04:03:32;97173.59;;;8.59;86.65
50774;BME280;36745;48.544;8.918;2023-03-19T04:06:52;97179.19;;;8.56;86.55
50774;BME280;36745;48.544;8.918;2023-03-19T04:10:12;97181.59;;;8.54;87.70
50774;BME280;36745;48.544;8.918;2023-03-19T04:13:32;97179.97;;;8.56;87.50
50774;BME280;36745;48.544;8.918;2023-03-19T04:16:55;97178.78;;;8.57;87.84
50774;BME280;36745;48.544;8.918;2023-03-19T04:20:14;97188.97;;;8.57;87.32
50774;BME280;36745;48.544;8.918;2023-03-19T04:23:37;97182.56;;;8.47;87.54
50774;BME280;36745;48.544;8.918;2023-03-19T04:26:57;97191.22;;;8.46;87.71
50774;BME280;36745;48.544;8.918;2023-03-19T04:30:16;97188.22;;;8.40;88.15
50774;BME280;36745;48.544;8.918;2023-03-19T04:33:37;97187.69;;;8.45;88.07
50774;BME280;36745;48.544;8.918;2023-03-19T04:36:57;97185.22;;;8.51;87.86
50774;BME280;36745;48.544;8.918;2023-03-19T04:40:17;97195.56;;;8.43;88.80
50774;BME280;36745;48.544;8.918;2023-03-19T04:43:37;97193.59;;;8.43;88.59
50774;BME280;36745;48.544;8.918;2023-03-19T04:46:57;97201.44;;;8.45;89.31
50774;BME280;36745;48.544;8.918;2023-03-19T04:50:16;97198.16;;;8.50;88.24
50774;BME280;36745;48.544;8.918;2023-03-19T04:53:37;97196.03;;;8.41;88.92
50774;BME280;36745;48.544;8.918;2023-03-19T04:56:58;97205.53;;;8.37;89.76
50774;BME280;36745;48.544;8.918;2023-03-19T05:00:18;97204.69;;;8.40;89.49
50774;BME280;36745;48.544;8.918;2023-03-19T05:03:38;97188.72;;;8.35;89.74
50774;BME280;36745;48.544;8.918;2023-03-19T05:06:59;97198.50;;;8.36;89.11
50774;BME280;36745;48.544;8.918;2023-03-19T05:10:19;97194.72;;;8.30;90.31
50774;BME280;36745;48.544;8.918;2023-03-19T05:13:39;97212.88;;;8.24;91.55
50774;BME280;36745;48.544;8.918;2023-03-19T05:16:59;97214.28;;;8.32;91.40
50774;BME280;36745;48.544;8.918;2023-03-19T05:20:19;97218.06;;;8.38;91.92
50774;BME280;36745;48.544;8.918;2023-03-19T05:23:39;97212.16;;;8.39;91.68
50774;BME280;36745;48.544;8.918;2023-03-19T05:26:58;97210.19;;;8.40;89.85
50774;BME280;36745;48.544;8.918;2023-03-19T05:30:18;97212.66;;;8.34;91.43
50774;BME280;36745;48.544;8.918;2023-03-19T05:33:38;97203.13;;;8.39;91.96
50774;BME280;36745;48.544;8.918;2023-03-19T05:36:58;97218.41;;;8.40;92.38
50774;BME280;36745;48.544;8.918;2023-03-19T05:40:18;97219.88;;;8.45;92.23
50774;BME280;36745;48.544;8.918;2023-03-19T05:43:37;97217.03;;;8.48;92.12
50774;BME280;36745;48.544;8.918;2023-03-19T05:46:57;97219.47;;;8.46;92.19
50774;BME280;36745;48.544;8.918;2023-03-19T05:50:18;97224.97;;;8.46;92.44
50774;BME280;36745;48.544;8.918;2023-03-19T05:53:37;97230.44;;;8.46;92.52
50774;BME280;36745;48.544;8.918;2023-03-19T05:56:57;97243.84;;;8.44;93.41
50774;BME280;36745;48.544;8.918;2023-03-19T06:00:18;97246.25;;;8.42;93.22
50774;BME280;36745;48.544;8.918;2023-03-19T06:03:38;97245.38;;;8.45;92.34
50774;BME280;36745;48.544;8.918;2023-03-19T06:06:57;97247.78;;;8.43;93.20
50774;BME280;36745;48.544;8.918;2023-03-19T06:10:27;97255.50;;;8.48;93.64
50774;BME280;36745;48.544;8.918;2023-03-19T06:13:50;97260.94;;;8.52;93.43
50774;BME280;36745;48.544;8.918;2023-03-19T06:17:12;97251.66;;;8.46;93.42
50774;BME280;36745;48.544;8.918;2023-03-19T06:20:32;97259.13;;;8.45;93.22
50774;BME280;36745;48.544;8.918;2023-03-19T06:23:51;97253.88;;;8.51;93.24
50774;BME280;36745;48.544;8.918;2023-03-19T06:27:11;97261.53;;;8.59;93.03
50774;BME280;36745;48.544;8.918;2023-03-19T06:30:32;97262.91;;;8.51;94.16
50774;BME280;36745;48.544;8.918;2023-03-19T06:33:55;97260.69;;;8.62;93.24
50774;BME280;36745;48.544;8.918;2023-03-19T06:37:19;97257.41;;;8.67;93.26
50774;BME280;36745;48.544;8.918;2023-03-19T06:40:39;97255.97;;;8.63;93.47
50774;BME280;36745;48.544;8.918;2023-03-19T06:43:58;97251.25;;;8.63;94.01
50774;BME280;36745;48.544;8.918;2023-03-19T06:47:18;97247.78;;;8.59;94.16
50774;BME280;36745;48.544;8.918;2023-03-19T06:50:38;97253.63;;;8.61;93.97
50774;BME280;36745;48.544;8.918;2023-03-19T06:53:58;97253.47;;;8.68;94.17
50774;BME280;36745;48.544;8.918;2023-03-19T06:57:18;97257.25;;;8.74;93.72
50774;BME280;36745;48.544;8.918;2023-03-19T07:00:41;97254.75;;;8.80;93.36
50774;BME280;36745;48.544;8.918;2023-03-19T07:04:01;97259.66;;;8.72;94.12
50774;BME280;36745;48.544;8.918;2023-03-19T07:07:20;97254.75;;;8.80;94.63
50774;BME280;36745;48.544;8.918;2023-03-19T07:10:40;97257.06;;;8.81;94.86
50774;BME280;36745;48.544;8.918;2023-03-19T07:14:00;97258.19;;;8.84;95.18
50774;BME280;36745;48.544;8.918;2023-03-19T07:17:21;97269.78;;;8.92;95.93
50774;BME280;36745;48.544;8.918;2023-03-19T07:20:40;97266.09;;;8.98;96.00
50774;BME280;36745;48.544;8.918;2023-03-19T07:24:00;97266.69;;;9.06;95.13
50774;BME280;36745;48.544;8.918;2023-03-19T07:27:20;97265.28;;;9.14;95.03
50774;BME280;36745;48.544;8.918;2023-03-19T07:30:40;97268.63;;;9.21;94.90
50774;BME280;36745;48.544;8.918;2023-03-19T07:34:00;97266.31;;;9.20;95.25
50774;BME280;36745;48.544;8.918;2023-03-19T07:37:19;97273.09;;;9.32;95.66
50774;BME280;36745;48.544;8.918;2023-03-19T07:40:39;97275.22;;;9.40;95.65
50774;BME280;36745;48.544;8.918;2023-03-19T07:43:59;97277.16;;;9.56;95.13
50774;BME280;36745;48.544;8.918;2023-03-19T07:47:19;97276.19;;;9.62;95.48
50774;BME280;36745;48.544;8.918;2023-03-19T07:50:39;97268.22;;;9.81;93.96
50774;BME280;36745;48.544;8.918;2023-03-19T07:53:59;97289.16;;;9.91;93.51
50774;BME280;36745;48.544;8.918;2023-03-19T07:57:19;97279.69;;;9.92;93.60
50774;BME280;36745;48.544;8.918;2023-03-19T08:00:39;97270.31;;;9.89;94.16
50774;BME280;36745;48.544;8.918;2023-03-19T08:03:59;97268.16;;;9.97;94.60
50774;BME280;36745;48.544;8.918;2023-03-19T08:07:19;97272.69;;;10.03;93.60
50774;BME280;36745;48.544;8.918;2023-03-19T08:10:40;97261.66;;;10.03;93.46
50774;BME280;36745;48.544;8.918;2023-03-19T08:13:59;97273.22;;;10.11;93.23
50774;BME280;36745;48.544;8.918;2023-03-19T08:17:19;97273.91;;;10.15;93.49
50774;BME280;36745;48.544;8.918;2023-03-19T08:20:39;97269.22;;;10.28;93.57
50774;BME280;36745;48.544;8.918;2023-03-19T08:23:59;97271.22;;;10.40;93.08
50774;BME280;36745;48.544;8.918;2023-03-19T08:27:19;97280.91;;;10.45;92.99
50774;BME280;36745;48.544;8.918;2023-03-19T08:30:39;97273.31;;;10.62;92.18
50774;BME280;36745;48.544;8.918;2023-03-19T08:33:59;97271.66;;;10.77;92.06
50774;BME280;36745;48.544;8.918;2023-03-19T08:37:21;97271.53;;;10.93;91.89
50774;BME280;36745;48.544;8.918;2023-03-19T08:40:41;97270.31;;;10.94;90.40
50774;BME280;36745;48.544;8.918;2023-03-19T08:44:01;97280.78;;;10.99;90.89
50774;BME280;36745;48.544;8.918;2023-03-19T08:47:20;97277.38;;;10.95;89.71
50774;BME280;36745;48.544;8.918;2023-03-19T08:50:42;97276.81;;;11.00;90.60
50774;BME280;36745;48.544;8.918;2023-03-19T08:54:02;97270.94;;;11.11;90.79
50774;BME280;36745;48.544;8.918;2023-03-19T08:57:23;97282.25;;;11.38;90.52
50774;BME280;36745;48.544;8.918;2023-03-19T09:00:42;97272.44;;;11.59;89.23
50774;BME280;36745;48.544;8.918;2023-03-19T09:04:02;97275.13;;;11.71;89.68
50774;BME280;36745;48.544;8.918;2023-03-19T09:07:22;97279.66;;;12.00;89.90
50774;BME280;36745;48.544;8.918;2023-03-19T09:10:42;97283.25;;;12.09;89.34
50774;BME280;36745;48.544;8.918;2023-03-19T09:14:02;97278.00;;;12.02;87.42
50774;BME280;36745;48.544;8.918;2023-03-19T09:17:22;97273.00;;;11.88;86.95
50774;BME280;36745;48.544;8.918;2023-03-19T09:20:42;97282.00;;;12.01;87.94
50774;BME280;36745;48.544;8.918;2023-03-19T09:24:02;97279.25;;;12.32;88.31
50774;BME280;36745;48.544;8.918;2023-03-19T09:27:22;97279.19;;;12.54;87.63
50774;BME280;36745;48.544;8.918;2023-03-19T09:30:45;97268.06;;;12.76;86.94
50774;BME280;36745;48.544;8.918;2023-03-19T09:34:05;97270.31;;;12.99;86.62
50774;BME280;36745;48.544;8.918;2023-03-19T09:37:25;97271.38;;;13.01;84.96
50774;BME280;36745;48.544;8.918;2023-03-19T09:41:15;97265.22;;;13.07;84.70
50774;BME280;36745;48.544;8.918;2023-03-19T09:44:39;97264.09;;;13.26;85.02
50774;BME280;36745;48.544;8.918;2023-03-19T09:48:06;97266.44;;;13.55;84.47
50774;BME280;36745;48.544;8.918;2023-03-19T09:51:43;97256.72;;;13.59;79.10
50774;BME280;36745;48.544;8.918;2023-03-19T09:58:44;97243.19;;;13.43;75.07
50774;BME280;36745;48.544;8.918;2023-03-19T10:06:28;97244.41;;;13.69;71.16
50774;BME280;36745;48.544;8.918;2023-03-19T10:10:14;97240.56;;;13.76;68.43
50774;BME280;36745;48.544;8.918;2023-03-19T10:13:55;97236.03;;;14.06;70.85
50774;BME280;36745;48.544;8.918;2023-03-19T10:17:21;97228.59;;;14.21;65.92
50774;BME280;36745;48.544;8.918;2023-03-19T10:24:28;97236.47;;;14.22;64.35
50774;BME280;36745;48.544;8.918;2023-03-19T10:27:57;97234.47;;;14.23;60.19
50774;BME280;36745;48.544;8.918;2023-03-19T10:32:10;97240.31;;;14.25;60.69
50774;BME280;36745;48.544;8.918;2023-03-19T10:35:18;97235.53;;;14.25;59.78
50774;BME280;36745;48.544;8.918;2023-03-19T10:38:41;97230.41;;;14.42;59.92
50774;BME280;36745;48.544;8.918;2023-03-19T10:42:38;97229.00;;;14.47;59.54
50774;BME280;36745;48.544;8.918;2023-03-19T10:46:01;97224.22;;;14.47;58.44
50774;BME280;36745;48.544;8.918;2023-03-19T10:49:21;97220.81;;;14.52;58.29
50774;BME280;36745;48.544;8.918;2023-03-19T10:52:41;97224.84;;;14.51;58.43
50774;BME280;36745;48.544;8.918;2023-03-19T10:56:28;97230.13;;;15.06;59.24
50774;BME280;36745;48.544;8.918;2023-03-19T10:59:48;97222.19;;;15.37;56.84
50774;BME280;36745;48.544;8.918;2023-03-19T11:06:54;97223.22;;;15.64;57.16
50774;BME280;36745;48.544;8.918;2023-03-19T11:10:15;97228.03;;;15.78;55.98
50774;BME280;36745;48.544;8.918;2023-03-19T11:13:35;97224.19;;;16.78;54.87
50774;BME280;36745;48.544;8.918;2023-03-19T11:16:56;97225.63;;;17.08;56.12
50774;BME280;36745;48.544;8.918;2023-03-19T11:20:25;97208.97;;;18.00;55.55
50774;BME280;36745;48.544;8.918;2023-03-19T11:23:51;97213.50;;;17.11;52.86
50774;BME280;36745;48.544;8.918;2023-03-19T11:27:11;97216.06;;;16.30;52.86
50774;BME280;36745;48.544;8.918;2023-03-19T11:30:37;97216.19;;;15.92;53.33
50774;BME280;36745;48.544;8.918;2023-03-19T11:37:52;97213.38;;;17.00;51.97
50774;BME280;36745;48.544;8.918;2023-03-19T11:52:21;97203.31;;;16.38;51.61
50774;BME280;36745;48.544;8.918;2023-03-19T11:55:51;97204.84;;;16.25;50.94
50774;BME280;36745;48.544;8.918;2023-03-19T11:59:37;97203.88;;;16.43;51.20
50774;BME280;36745;48.544;8.918;2023-03-19T12:10:43;97189.03;;;16.16;50.61
50774;BME280;36745;48.544;8.918;2023-03-19T12:14:35;97189.31;;;16.04;51.08
50774;BME280;36745;48.544;8.918;2023-03-19T12:25:47;97184.72;;;16.15;51.32
50774;BME280;36745;48.544;8.918;2023-03-19T12:29:18;97182.97;;;16.32;50.68
50774;BME280;36745;48.544;8.918;2023-03-19T12:36:47;97182.78;;;16.21;50.63
50774;BME280;36745;48.544;8.918;2023-03-19T12:40:35;97177.16;;;16.01;50.46
50774;BME280;36745;48.544;8.918;2023-03-19T12:47:34;97173.63;;;15.86;50.65
50774;BME280;36745;48.544;8.918;2023-03-19T12:51:06;97166.88;;;15.78;50.30
50774;BME280;36745;48.544;8.918;2023-03-19T12:58:50;97168.25;;;15.97;50.82
50774;BME280;36745;48.544;8.918;2023-03-19T13:06:35;97166.06;;;16.36;49.92
50774;BME280;36745;48.544;8.918;2023-03-19T13:10:18;97159.88;;;16.26;49.32
50774;BME280;36745;48.544;8.918;2023-03-19T13:13:51;97167.66;;;16.22;49.77
50774;BME280;36745;48.544;8.918;2023-03-19T13:24:27;97177.63;;;16.14;50.16
50774;BME280;36745;48.544;8.918;2023-03-19T13:27:52;97177.03;;;16.40;50.87
50774;BME280;36745;48.544;8.918;2023-03-19T13:31:26;97178.81;;;16.43;50.41
50774;BME280;36745;48.544;8.918;2023-03-19T13:34:46;97171.84;;;16.32;50.42
50774;BME280;36745;48.544;8.918;2023-03-19T13:45:28;97162.09;;;15.93;50.54
50774;BME280;36745;48.544;8.918;2023-03-19T13:48:52;97172.84;;;16.00;50.87
50774;BME280;36745;48.544;8.918;2023-03-19T13:55:45;97178.59;;;15.97;50.53
50774;BME280;36745;48.544;8.918;2023-03-19T13:59:25;97173.41;;;15.75;50.32
50774;BME280;36745;48.544;8.918;2023-03-19T14:02:47;97169.78;;;15.69;49.82
50774;BME280;36745;48.544;8.918;2023-03-19T14:06:43;97175.19;;;15.48;50.22
50774;BME280;36745;48.544;8.918;2023-03-19T14:10:18;97164.56;;;15.62;50.35
50774;BME280;36745;48.544;8.918;2023-03-19T14:13:42;97169.78;;;15.69;50.35
50774;BME280;36745;48.544;8.918;2023-03-19T14:17:13;97167.44;;;15.52;50.31
50774;BME280;36745;48.544;8.918;2023-03-19T14:20:43;97161.69;;;15.56;51.02
50774;BME280;36745;48.544;8.918;2023-03-19T14:24:27;97162.47;;;15.57;50.92
50774;BME280;36745;48.544;8.918;2023-03-19T14:27:50;97160.53;;;15.48;50.97
50774;BME280;36745;48.544;8.918;2023-03-19T14:31:22;97159.22;;;15.34;51.05
50774;BME280;36745;48.544;8.918;2023-03-19T14:34:45;97164.88;;;15.25;51.38
50774;BME280;36745;48.544;8.918;2023-03-19T14:38:13;97163.69;;;15.17;50.99
50774;BME280;36745;48.544;8.918;2023-03-19T14:41:39;97167.34;;;15.23;51.43
50774;BME280;36745;48.544;8.918;2023-03-19T14:45:25;97167.94;;;15.27;51.48
50774;BME280;36745;48.544;8.918;2023-03-19T14:52:16;97182.13;;;15.29;51.80
50774;BME280;36745;48.544;8.918;2023-03-19T14:55:40;97176.28;;;15.03;51.42
50774;BME280;36745;48.544;8.918;2023-03-19T14:59:00;97180.66;;;14.95;51.63
50774;BME280;36745;48.544;8.918;2023-03-19T15:02:37;97179.50;;;14.87;51.98
50774;BME280;36745;48.544;8.918;2023-03-19T15:06:00;97176.28;;;15.03;52.20
50774;BME280;36745;48.544;8.918;2023-03-19T15:09:25;97180.72;;;15.10;51.41
50774;BME280;36745;48.544;8.918;2023-03-19T15:16:39;97182.63;;;15.04;52.16
50774;BME280;36745;48.544;8.918;2023-03-19T15:20:14;97176.94;;;14.98;52.11
50774;BME280;36745;48.544;8.918;2023-03-19T15:23:36;97181.44;;;14.96;52.32
50774;BME280;36745;48.544;8.918;2023-03-19T15:26:57;97179.78;;;15.13;52.58
50774;BME280;36745;48.544;8.918;2023-03-19T15:30:20;97178.22;;;15.12;52.08
50774;BME280;36745;48.544;8.918;2023-03-19T15:33:41;97175.75;;;15.14;52.26
50774;BME280;36745;48.544;8.918;2023-03-19T15:37:04;97184.97;;;15.20;52.10
50774;BME280;36745;48.544;8.918;2023-03-19T15:40:28;97185.75;;;15.21;52.14
50774;BME280;36745;48.544;8.918;2023-03-19T15:43:49;97190.44;;;15.29;52.19
50774;BME280;36745;48.544;8.918;2023-03-19T15:47:14;97193.81;;;15.33;52.21
50774;BME280;36745;48.544;8.918;2023-03-19T15:50:40;97197.06;;;15.32;51.92
50774;BME280;36745;48.544;8.918;2023-03-19T15:54:03;97195.53;;;15.31;51.92
50774;BME280;36745;48.544;8.918;2023-03-19T15:57:24;97195.13;;;15.23;52.31
50774;BME280;36745;48.544;8.918;2023-03-19T16:00:43;97200.50;;;15.27;52.19
50774;BME280;36745;48.544;8.918;2023-03-19T16:04:13;97206.00;;;15.12;51.72
50774;BME280;36745;48.544;8.918;2023-03-19T16:07:40;97209.59;;;15.03;52.21
50774;BME280;36745;48.544;8.918;2023-03-19T16:11:12;97209.25;;;14.87;52.38
50774;BME280;36745;48.544;8.918;2023-03-19T16:14:40;97217.38;;;14.90;52.78
50774;BME280;36745;48.544;8.918;2023-03-19T16:21:42;97217.56;;;14.87;52.75
50774;BME280;36745;48.544;8.918;2023-03-19T16:25:02;97224.66;;;14.88;52.79
50774;BME280;36745;48.544;8.918;2023-03-19T16:28:26;97231.78;;;14.80;52.50
50774;BME280;36745;48.544;8.918;2023-03-19T16:31:51;97227.84;;;14.72;52.73
50774;BME280;36745;48.544;8.918;2023-03-19T16:35:13;97238.34;;;14.67;52.80
50774;BME280;36745;48.544;8.918;2023-03-19T16:38:42;97236.94;;;14.63;53.09
50774;BME280;36745;48.544;8.918;2023-03-19T16:42:13;97241.63;;;14.57;53.18
50774;BME280;36745;48.544;8.918;2023-03-19T16:45:33;97246.34;;;14.65;53.47
50774;BME280;36745;48.544;8.918;2023-03-19T16:48:53;97252.09;;;14.62;53.51
50774;BME280;36745;48.544;8.918;2023-03-19T16:52:19;97254.38;;;14.63;53.58
50774;BME280;36745;48.544;8.918;2023-03-19T16:55:41;97257.78;;;14.58;53.83
50774;BME280;36745;48.544;8.918;2023-03-19T16:59:01;97262.72;;;14.54;54.14
50774;BME280;36745;48.544;8.918;2023-03-19T17:02:21;97261.22;;;14.44;54.31
50774;BME280;36745;48.544;8.918;2023-03-19T17:05:42;97267.72;;;14.41;54.50
50774;BME280;36745;48.544;8.918;2023-03-19T17:09:03;97272.97;;;14.39;54.63
50774;BME280;36745;48.544;8.918;2023-03-19T17:12:23;97278.78;;;14.32;54.62
50774;BME280;36745;48.544;8.918;2023-03-19T17:15:43;97280.06;;;14.22;55.08
50774;BME280;36745;48.544;8.918;2023-03-19T17:19:09;97295.78;;;14.07;55.53
50774;BME280;36745;48.544;8.918;2023-03-19T17:22:33;97303.78;;;14.05;55.98
50774;BME280;36745;48.544;8.918;2023-03-19T17:25:53;97310.41;;;13.98;56.58
50774;BME280;36745;48.544;8.918;2023-03-19T17:29:13;97302.56;;;14.06;57.23
50774;BME280;36745;48.544;8.918;2023-03-19T17:32:33;97305.97;;;13.92;58.28
50774;BME280;36745;48.544;8.918;2023-03-19T17:35:54;97313.03;;;13.83;58.09
50774;BME280;36745;48.544;8.918;2023-03-19T17:39:14;97318.75;;;13.71;58.36
50774;BME280;36745;48.544;8.918;2023-03-19T17:42:34;97317.19;;;13.52;58.62
50774;BME280;36745;48.544;8.918;2023-03-19T17:45:54;97322.88;;;13.48;58.66
50774;BME280;36745;48.544;8.918;2023-03-19T17:49:26;97322.41;;;13.40;59.77
50774;BME280;36745;48.544;8.918;2023-03-19T17:52:47;97334.56;;;13.43;59.18
50774;BME280;36745;48.544;8.918;2023-03-19T17:56:13;97346.81;;;13.24;60.81
50774;BME280;36745;48.544;8.918;2023-03-19T17:59:33;97346.78;;;13.15;61.62
50774;BME280;36745;48.544;8.918;2023-03-19T18:02:54;97346.47;;;13.13;61.82
50774;BME280;36745;48.544;8.918;2023-03-19T18:06:17;97345.50;;;13.07;62.02
50774;BME280;36745;48.544;8.918;2023-03-19T18:09:36;97360.25;;;13.03;62.49
50774;BME280;36745;48.544;8.918;2023-03-19T18:12:56;97353.63;;;13.01;62.11
50774;BME280;36745;48.544;8.918;2023-03-19T18:16:27;97354.38;;;12.92;62.91
50774;BME280;36745;48.544;8.918;2023-03-19T18:19:47;97360.81;;;12.89;62.42
50774;BME280;36745;48.544;8.918;2023-03-19T18:23:11;97355.28;;;12.89;62.86
50774;BME280;36745;48.544;8.918;2023-03-19T18:26:32;97367.38;;;12.83;63.39
50774;BME280;36745;48.544;8.918;2023-03-19T18:29:51;97365.06;;;12.81;63.95
50774;BME280;36745;48.544;8.918;2023-03-19T18:33:25;97362.56;;;12.74;64.08
50774;BME280;36745;48.544;8.918;2023-03-19T18:36:46;97363.16;;;12.69;64.17
50774;BME280;36745;48.544;8.918;2023-03-19T18:40:14;97368.50;;;12.63;64.49
50774;BME280;36745;48.544;8.918;2023-03-19T18:43:34;97374.63;;;12.58;64.63
50774;BME280;36745;48.544;8.918;2023-03-19T18:46:54;97370.16;;;12.52;64.91
50774;BME280;36745;48.544;8.918;2023-03-19T18:53:36;97388.03;;;12.38;65.80
50774;BME280;36745;48.544;8.918;2023-03-19T18:56:58;97387.13;;;12.41;65.72
50774;BME280;36745;48.544;8.918;2023-03-19T19:00:22;97402.94;;;12.41;65.69
50774;BME280;36745;48.544;8.918;2023-03-19T19:03:43;97403.53;;;12.36;66.29
50774;BME280;36745;48.544;8.918;2023-03-19T19:07:04;97399.22;;;12.35;66.54
50774;BME280;36745;48.544;8.918;2023-03-19T19:10:25;97399.47;;;12.28;66.65
50774;BME280;36745;48.544;8.918;2023-03-19T19:13:48;97408.91;;;12.17;67.07
50774;BME280;36745;48.544;8.918;2023-03-19T19:17:17;97412.81;;;12.07;67.69
50774;BME280;36745;48.544;8.918;2023-03-19T19:20:37;97422.81;;;11.92;67.83
50774;BME280;36745;48.544;8.918;2023-03-19T19:23:57;97420.50;;;11.91;67.98
50774;BME280;36745;48.544;8.918;2023-03-19T19:27:22;97422.41;;;11.81;68.42
50774;BME280;36745;48.544;8.918;2023-03-19T19:30:45;97427.59;;;11.79;68.09
50774;BME280;36745;48.544;8.918;2023-03-19T19:34:04;97425.59;;;11.67;68.61
50774;BME280;36745;48.544;8.918;2023-03-19T19:37:24;97419.44;;;11.50;69.20